Time,TemperatureF,DewpointF,PressureIn,WindDirection,WindDirectionDegrees,WindSpeedMPH,WindSpeedGustMPH,Humidity,HourlyPrecipIn,Conditions,Clouds,dailyrainin,SoftwareType,DateUTC
2013-03-02 00:06:00,38.3,34.0,29.89,NW,323,3.0,4.0,84,0.00,,,0.00,weatherlink.com 1.10,2013-03-02 05:06:00,
2013-03-02 00:21:00,38.5,35.0,29.88,NW,323,2.0,4.0,86,0.00,,,0.00,weatherlink.com 1.10,2013-03-02 05:21:00,
2013-03-02 00:36:00,38.4,35.0,29.88,NW,321,2.0,5.0,86,0.00,,,0.00,weatherlink.com 1.10,2013-03-02 05:36:00,
2013-03-02 00:51:00,38.2,34.0,29.88,NW,321,2.0,4.0,85,0.00,,,0.00,weatherlink.com 1.10,2013-03-02 05:51:00,
2013-03-02 01:06:00,37.7,34.0,29.89,NW,321,2.0,3.0,86,0.00,,,0.00,weatherlink.com 1.10,2013-03-02 06:06:00,
2013-03-02 01:21:00,37.7,34.0,29.89,NW,321,3.0,4.0,87,0.00,,,0.00,weatherlink.com 1.10,2013-03-02 06:21:00,
2013-03-02 01:36:00,37.3,34.0,29.88,NW,321,1.0,3.0,87,0.00,,,0.00,weatherlink.com 1.10,2013-03-02 06:36:00,
2013-03-02 02:07:00,36.5,33.0,29.89,NW,321,0.0,4.0,88,0.00,,,0.00,weatherlink.com 1.10,2013-03-02 07:07:00,
2013-03-02 02:24:00,36.1,33.0,29.88,NW,321,2.0,4.0,88,0.00,,,0.00,weatherlink.com 1.10,2013-03-02 07:24:00,
2013-03-02 02:37:00,35.4,32.0,29.87,NW,321,1.0,3.0,88,0.00,,,0.00,weatherlink.com 1.10,2013-03-02 07:37:00,
2013-03-02 02:52:00,35.1,32.0,29.87,NW,321,3.0,3.0,89,0.00,,,0.00,weatherlink.com 1.10,2013-03-02 07:52:00,
2013-03-02 03:07:00,35.1,32.0,29.87,NW,321,2.0,3.0,89,0.00,,,0.00,weatherlink.com 1.10,2013-03-02 08:07:00,
2013-03-02 03:22:00,34.4,32.0,29.86,NW,321,2.0,3.0,89,0.00,,,0.00,weatherlink.com 1.10,2013-03-02 08:22:00,
2013-03-02 03:37:00,34.6,32.0,29.86,NW,321,4.0,4.0,90,0.00,,,0.00,weatherlink.com 1.10,2013-03-02 08:37:00,
2013-03-02 03:52:00,34.7,32.0,29.86,NW,321,3.0,5.0,90,0.00,,,0.00,weatherlink.com 1.10,2013-03-02 08:52:00,
2013-03-02 04:07:00,34.2,32.0,29.86,NW,321,2.0,4.0,90,0.00,,,0.00,weatherlink.com 1.10,2013-03-02 09:07:00,
2013-03-02 04:22:00,34.2,32.0,29.86,NW,321,4.0,5.0,90,0.00,,,0.00,weatherlink.com 1.10,2013-03-02 09:22:00,
2013-03-02 04:37:00,34.2,32.0,29.86,NW,320,4.0,6.0,90,0.00,,,0.00,weatherlink.com 1.10,2013-03-02 09:37:00,
2013-03-02 05:22:00,34.3,32.0,29.87,NW,320,3.0,5.0,90,0.00,,,0.00,weatherlink.com 1.10,2013-03-02 10:22:00,
2013-03-02 05:37:00,35.0,32.0,29.87,NW,320,3.0,5.0,90,0.00,,,0.00,weatherlink.com 1.10,2013-03-02 10:37:00,
2013-03-02 05:52:00,34.9,32.0,29.87,NW,320,1.0,3.0,90,0.00,,,0.00,weatherlink.com 1.10,2013-03-02 10:52:00,
2013-03-02 06:07:00,35.1,33.0,29.87,NW,320,1.0,2.0,90,0.00,,,0.00,weatherlink.com 1.10,2013-03-02 11:07:00,
2013-03-02 06:22:00,35.0,32.0,29.88,NW,320,1.0,3.0,90,0.00,,,0.00,weatherlink.com 1.10,2013-03-02 11:22:00,
2013-03-02 06:37:00,34.8,32.0,29.88,NW,319,2.0,3.0,90,0.00,,,0.00,weatherlink.com 1.10,2013-03-02 11:37:00,
2013-03-02 06:52:00,34.6,32.0,29.88,NW,319,2.0,4.0,90,0.00,,,0.00,weatherlink.com 1.10,2013-03-02 11:52:00,
2013-03-02 07:07:00,34.6,32.0,29.88,NW,319,3.0,4.0,90,0.00,,,0.00,weatherlink.com 1.10,2013-03-02 12:07:00,
2013-03-02 07:22:00,35.7,33.0,29.88,NW,320,1.0,4.0,90,0.00,,,0.00,weatherlink.com 1.10,2013-03-02 12:22:00,
2013-03-02 07:37:00,36.5,34.0,29.89,NW,320,2.0,4.0,90,0.00,,,0.00,weatherlink.com 1.10,2013-03-02 12:37:00,
2013-03-02 07:52:00,38.9,35.0,29.89,NNW,348,5.0,7.0,85,0.00,,,0.00,weatherlink.com 1.10,2013-03-02 12:52:00,
2013-03-02 08:07:00,40.4,35.0,29.89,North,5,5.0,8.0,80,0.00,,,0.00,weatherlink.com 1.10,2013-03-02 13:07:00,
2013-03-02 08:22:00,41.2,35.0,29.88,North,5,4.0,7.0,77,0.00,,,0.00,weatherlink.com 1.10,2013-03-02 13:22:00,
2013-03-02 08:37:00,42.0,35.0,29.88,North,5,3.0,6.0,75,0.00,,,0.00,weatherlink.com 1.10,2013-03-02 13:37:00,
2013-03-02 08:52:00,42.7,34.0,29.88,North,5,4.0,6.0,71,0.00,,,0.00,weatherlink.com 1.10,2013-03-02 13:52:00,
2013-03-02 09:07:00,44.5,36.0,29.87,North,355,2.0,6.0,71,0.00,,,0.00,weatherlink.com 1.10,2013-03-02 14:07:00,
2013-03-02 09:22:00,45.4,35.0,29.87,North,11,7.0,9.0,66,0.00,,,0.00,weatherlink.com 1.10,2013-03-02 14:22:00,
2013-03-02 09:37:00,46.6,36.0,29.86,North,360,4.0,8.0,66,0.00,,,0.00,weatherlink.com 1.10,2013-03-02 14:37:00,
2013-03-02 09:52:00,46.5,35.0,29.85,NNE,14,6.0,13.0,64,0.00,,,0.00,weatherlink.com 1.10,2013-03-02 14:52:00,
2013-03-02 10:07:00,46.9,34.0,29.85,NNE,13,7.0,11.0,61,0.00,,,0.00,weatherlink.com 1.10,2013-03-02 15:07:00,
2013-03-02 10:22:00,47.2,35.0,29.84,North,5,9.0,12.0,63,0.00,,,0.00,weatherlink.com 1.10,2013-03-02 15:22:00,
2013-03-02 10:37:00,47.7,35.0,29.84,NNE,30,9.0,11.0,62,0.00,,,0.00,weatherlink.com 1.10,2013-03-02 15:37:00,
2013-03-02 10:53:00,47.7,34.0,29.84,North,360,7.0,14.0,60,0.00,,,0.00,weatherlink.com 1.10,2013-03-02 15:53:00,
2013-03-02 11:08:00,47.9,35.0,29.84,NNE,30,5.0,9.0,61,0.00,,,0.00,weatherlink.com 1.10,2013-03-02 16:08:00,
2013-03-02 11:23:00,49.3,35.0,29.85,NNE,17,6.0,8.0,58,0.00,,,0.00,weatherlink.com 1.10,2013-03-02 16:23:00,
2013-03-02 11:38:00,50.7,35.0,29.84,NNW,337,4.0,7.0,56,0.00,,,0.00,weatherlink.com 1.10,2013-03-02 16:38:00,
2013-03-02 11:53:00,48.8,35.0,29.84,NW,315,6.0,7.0,59,0.00,,,0.00,weatherlink.com 1.10,2013-03-02 16:53:00,
2013-03-02 12:08:00,49.3,36.0,29.84,NNW,339,5.0,8.0,60,0.00,,,0.00,weatherlink.com 1.10,2013-03-02 17:08:00,
2013-03-02 12:23:00,49.7,33.0,29.83,NNE,22,7.0,8.0,54,0.00,,,0.00,weatherlink.com 1.10,2013-03-02 17:23:00,
2013-03-02 12:38:00,49.6,34.0,29.82,NW,320,3.0,8.0,56,0.00,,,0.00,weatherlink.com 1.10,2013-03-02 17:38:00,
2013-03-02 12:53:00,51.1,35.0,29.82,NW,309,8.0,10.0,55,0.00,,,0.00,weatherlink.com 1.10,2013-03-02 17:53:00,
2013-03-02 13:22:00,51.3,36.0,29.81,WNW,302,7.0,11.0,56,0.00,,,0.00,weatherlink.com 1.10,2013-03-02 18:22:00,
2013-03-02 13:38:00,51.7,36.0,29.81,NW,324,2.0,12.0,55,0.00,,,0.00,weatherlink.com 1.10,2013-03-02 18:38:00,
2013-03-02 13:53:00,52.8,36.0,29.79,West,278,4.0,7.0,53,0.00,,,0.00,weatherlink.com 1.10,2013-03-02 18:53:00,
2013-03-02 14:08:00,53.3,36.0,29.79,WNW,298,5.0,6.0,52,0.00,,,0.00,weatherlink.com 1.10,2013-03-02 19:08:00,
2013-03-02 14:23:00,51.3,34.0,29.79,North,5,8.0,12.0,53,0.00,,,0.00,weatherlink.com 1.10,2013-03-02 19:23:00,
2013-03-02 14:38:00,51.3,36.0,29.79,North,351,4.0,7.0,56,0.00,,,0.00,weatherlink.com 1.10,2013-03-02 19:38:00,
2013-03-02 14:53:00,53.3,35.0,29.78,NW,322,5.0,9.0,51,0.00,,,0.00,weatherlink.com 1.10,2013-03-02 19:53:00,
2013-03-02 15:08:00,55.0,35.0,29.78,NW,304,3.0,9.0,48,0.00,,,0.00,weatherlink.com 1.10,2013-03-02 20:08:00,
2013-03-02 15:23:00,55.7,37.0,29.78,NW,305,9.0,14.0,49,0.00,,,0.00,weatherlink.com 1.10,2013-03-02 20:23:00,
2013-03-02 15:37:00,56.2,37.0,29.78,West,270,6.0,10.0,48,0.00,,,0.00,weatherlink.com 1.10,2013-03-02 20:37:00,
2013-03-02 15:53:00,54.4,35.0,29.78,WNW,288,5.0,11.0,48,0.00,,,0.00,weatherlink.com 1.10,2013-03-02 20:53:00,
2013-03-02 16:07:00,53.1,35.0,29.78,NNW,330,11.0,14.0,51,0.00,,,0.00,weatherlink.com 1.10,2013-03-02 21:07:00,
2013-03-02 16:22:00,50.7,35.0,29.78,West,277,4.0,8.0,55,0.00,,,0.00,weatherlink.com 1.10,2013-03-02 21:22:00,
2013-03-02 16:37:00,49.8,34.0,29.78,NW,324,8.0,10.0,56,0.00,,,0.00,weatherlink.com 1.10,2013-03-02 21:37:00,
2013-03-02 16:52:00,49.4,34.0,29.78,NNW,336,5.0,10.0,56,0.00,,,0.00,weatherlink.com 1.10,2013-03-02 21:52:00,
2013-03-02 17:07:00,49.3,34.0,29.79,NW,306,8.0,11.0,56,0.00,,,0.00,weatherlink.com 1.10,2013-03-02 22:07:00,
2013-03-02 17:22:00,48.7,35.0,29.79,NNW,340,7.0,12.0,59,0.00,,,0.00,weatherlink.com 1.10,2013-03-02 22:22:00,
2013-03-02 17:37:00,47.9,34.0,29.80,WNW,302,6.0,9.0,60,0.00,,,0.00,weatherlink.com 1.10,2013-03-02 22:37:00,
2013-03-02 17:52:00,47.3,35.0,29.81,NW,310,5.0,8.0,63,0.00,,,0.00,weatherlink.com 1.10,2013-03-02 22:52:00,
2013-03-02 18:07:00,46.6,34.0,29.81,NW,319,4.0,11.0,62,0.00,,,0.00,weatherlink.com 1.10,2013-03-02 23:07:00,
2013-03-02 18:22:00,46.0,34.0,29.81,NW,319,4.0,6.0,64,0.00,,,0.00,weatherlink.com 1.10,2013-03-02 23:22:00,
2013-03-02 18:37:00,45.2,34.0,29.82,NW,319,4.0,6.0,65,0.00,,,0.00,weatherlink.com 1.10,2013-03-02 23:37:00,
2013-03-02 18:52:00,44.2,34.0,29.82,NW,318,3.0,5.0,68,0.00,,,0.00,weatherlink.com 1.10,2013-03-02 23:52:00,
2013-03-02 19:07:00,43.2,34.0,29.82,NW,318,4.0,5.0,70,0.00,,,0.00,weatherlink.com 1.10,2013-03-03 00:07:00,
2013-03-02 19:22:00,42.2,33.0,29.82,NW,318,2.0,4.0,71,0.00,,,0.00,weatherlink.com 1.10,2013-03-03 00:22:00,
2013-03-02 19:37:00,41.2,33.0,29.82,NW,318,4.0,4.0,73,0.00,,,0.00,weatherlink.com 1.10,2013-03-03 00:37:00,
2013-03-02 19:52:00,40.6,34.0,29.83,NW,318,2.0,4.0,78,0.00,,,0.00,weatherlink.com 1.10,2013-03-03 00:52:00,
2013-03-02 20:07:00,40.2,34.0,29.83,NW,318,3.0,3.0,79,0.00,,,0.00,weatherlink.com 1.10,2013-03-03 01:07:00,
2013-03-02 20:22:00,40.1,34.0,29.83,NW,318,2.0,3.0,80,0.00,,,0.00,weatherlink.com 1.10,2013-03-03 01:22:00,
2013-03-02 20:37:00,39.9,35.0,29.84,NW,318,2.0,4.0,83,0.00,,,0.00,weatherlink.com 1.10,2013-03-03 01:37:00,
2013-03-02 20:52:00,39.3,34.0,29.84,NW,318,2.0,3.0,81,0.00,,,0.00,weatherlink.com 1.10,2013-03-03 01:52:00,
2013-03-02 21:07:00,38.8,34.0,29.85,NW,318,2.0,4.0,83,0.00,,,0.00,weatherlink.com 1.10,2013-03-03 02:07:00,
2013-03-02 21:22:00,38.6,34.0,29.85,NW,318,4.0,6.0,83,0.00,,,0.00,weatherlink.com 1.10,2013-03-03 02:22:00,
2013-03-02 21:37:00,38.4,34.0,29.86,NW,318,5.0,5.0,83,0.00,,,0.00,weatherlink.com 1.10,2013-03-03 02:37:00,
2013-03-02 21:53:00,38.6,34.0,29.85,NW,308,4.0,7.0,82,0.00,,,0.00,weatherlink.com 1.10,2013-03-03 02:53:00,
2013-03-02 22:07:00,38.5,33.0,29.86,WNW,298,4.0,6.0,82,0.00,,,0.00,weatherlink.com 1.10,2013-03-03 03:07:00,
2013-03-02 22:23:00,38.6,34.0,29.86,WNW,296,5.0,6.0,82,0.00,,,0.00,weatherlink.com 1.10,2013-03-03 03:23:00,
2013-03-02 22:38:00,38.7,33.0,29.86,WNW,292,5.0,9.0,81,0.00,,,0.00,weatherlink.com 1.10,2013-03-03 03:38:00,
2013-03-02 22:53:00,38.7,33.0,29.86,NW,309,7.0,8.0,81,0.00,,,0.00,weatherlink.com 1.10,2013-03-03 03:53:00,
2013-03-02 23:08:00,38.8,33.0,29.86,WNW,297,5.0,8.0,81,0.00,,,0.00,weatherlink.com 1.10,2013-03-03 04:08:00,
2013-03-02 23:23:00,39.4,34.0,29.86,NNW,338,7.0,9.0,82,0.00,,,0.00,weatherlink.com 1.10,2013-03-03 04:23:00,
2013-03-02 23:38:00,41.0,35.0,29.86,North,9,7.0,11.0,80,0.00,,,0.00,weatherlink.com 1.10,2013-03-03 04:38:00,
2013-03-02 23:53:00,41.7,35.0,29.86,NNE,17,11.0,16.0,78,0.00,,,0.00,weatherlink.com 1.10,2013-03-03 04:53:00,